Time;durP1;ratioP1;P1;durP2;ratioP2;P2;SDS_P1;SDS_P2;PMS_P1;PMS_P2;Temp;Humidity;BMP_temperature;BMP_pressure;BME280_temperature;BME280_humidity;BME280_pressure;Samples;Min_cycle;Max_cycle;Signal;HPM_P1;HPM_P2
2022/10/14 00:01:31;;;;;;;15.68;6.63;;;12.30;99.90;;;;;;4939646;28;20169;-75
2022/10/14 00:04:01;;;;;;;15.98;6.72;;;12.30;99.90;;;;;;4949967;28;20493;-76
2022/10/14 00:06:31;;;;;;;15.02;5.53;;;12.30;99.90;;;;;;4935187;28;20051;-76
2022/10/14 00:09:04;;;;;;;22.02;5.88;;;12.30;99.90;;;;;;4934044;28;20468;-76
2022/10/14 00:11:33;;;;;;;27.13;6.15;;;12.20;99.90;;;;;;4953981;28;20493;-75
2022/10/14 00:14:13;;;;;;;20.58;6.20;;;12.20;99.90;;;;;;4856156;28;20213;-74
2022/10/14 00:16:44;;;;;;;21.48;5.53;;;12.30;99.90;;;;;;4948191;28;20514;-76
2022/10/14 00:19:16;;;;;;;18.90;5.32;;;12.30;99.90;;;;;;4957724;28;20122;-75
2022/10/14 00:22:01;;;;;;;17.52;5.28;;;12.20;99.90;;;;;;4891690;28;20271;-74
2022/10/14 00:24:36;;;;;;;15.52;5.93;;;12.10;99.90;;;;;;4940451;29;20070;-75
2022/10/14 00:27:05;;;;;;;8.98;4.50;;;12.10;99.90;;;;;;4944313;28;20403;-76
2022/10/14 00:29:31;;;;;;;;;;;12.10;99.90;;;;;;4928119;28;20054;-74
2022/10/14 00:32:04;;;;;;;9.52;3.95;;;12.00;99.90;;;;;;4945913;28;20458;-76
2022/10/14 00:34:30;;;;;;;16.25;4.40;;;12.00;99.90;;;;;;4929866;29;20492;-75
2022/10/14 00:37:02;;;;;;;13.85;4.22;;;12.00;99.90;;;;;;4928758;28;20641;-75
2022/10/14 00:40:11;;;;;;;;;;;;;;;;;;;;;
2022/10/14 00:46:31;;;;;;;22.27;4.93;;;12.00;99.90;;;;;;4794343;28;20456;-74
2022/10/14 00:52:43;;;;;;;10.95;4.20;;;11.90;99.90;;;;;;4897868;28;20517;-75
2022/10/14 00:55:18;;;;;;;12.75;4.60;;;11.90;99.90;;;;;;4890822;29;20219;-75
2022/10/14 00:57:47;;;;;;;14.15;4.40;;;11.90;99.90;;;;;;4824442;29;20162;-75
2022/10/14 01:00:18;;;;;;;26.73;4.65;;;11.90;99.90;;;;;;4893256;29;20543;-75
2022/10/14 01:02:46;;;;;;;11.57;4.55;;;11.80;99.90;;;;;;4904601;28;20040;-75
2022/10/14 01:05:14;;;;;;;16.73;4.88;;;11.80;99.90;;;;;;4889237;28;20087;-74
2022/10/14 01:07:54;;;;;;;12.90;5.00;;;11.80;99.90;;;;;;4933142;28;20513;-75
2022/10/14 01:10:51;;;;;;;22.65;5.28;;;11.80;99.90;;;;;;4942809;28;20043;-78
2022/10/14 01:13:34;;;;;;;16.95;5.03;;;11.80;99.90;;;;;;4957816;28;20282;-75
2022/10/14 01:16:24;;;;;;;26.63;4.80;;;11.70;99.90;;;;;;4933227;28;20069;-75
2022/10/14 01:19:34;;;;;;;9.70;4.85;;;11.80;99.90;;;;;;4923448;28;20058;-74
2022/10/14 01:22:10;;;;;;;23.98;5.30;;;11.70;99.90;;;;;;4940376;28;20173;-75
2022/10/14 01:24:54;;;;;;;20.35;5.35;;;11.70;99.90;;;;;;4951401;28;20104;-74
2022/10/14 01:27:46;;;;;;;52.13;5.45;;;11.70;99.90;;;;;;4938779;28;20390;-75
2022/10/14 01:30:21;;;;;;;14.23;5.45;;;11.70;99.90;;;;;;4935523;28;20409;-75
2022/10/14 01:33:12;;;;;;;9.85;5.20;;;11.70;99.90;;;;;;4926695;28;20130;-74
2022/10/14 01:35:40;;;;;;;43.40;5.07;;;11.70;99.90;;;;;;4929688;28;20651;-75
2022/10/14 01:38:14;;;;;;;31.05;5.72;;;11.70;99.90;;;;;;4939367;28;20043;-74
2022/10/14 01:41:05;;;;;;;22.10;5.65;;;11.70;99.90;;;;;;4938965;28;20568;-75
2022/10/14 01:43:32;;;;;;;15.60;5.38;;;11.60;99.90;;;;;;4936080;28;20047;-74
2022/10/14 01:46:01;;;;;;;26.63;5.30;;;11.60;99.90;;;;;;4940748;28;20051;-75
2022/10/14 01:48:35;;;;;;;34.15;5.95;;;11.70;99.90;;;;;;4942462;28;20532;-74
2022/10/14 01:51:08;;;;;;;30.38;6.20;;;11.70;99.90;;;;;;4953586;28;20059;-74
2022/10/14 01:53:48;;;;;;;19.00;5.97;;;11.70;99.90;;;;;;4944379;28;20480;-74
2022/10/14 01:56:15;;;;;;;48.67;6.22;;;11.60;99.90;;;;;;4956422;28;20048;-74
2022/10/14 01:58:42;;;;;;;39.15;5.80;;;11.60;99.90;;;;;;4963949;28;20055;-75
2022/10/14 02:01:08;;;;;;;28.80;5.53;;;11.60;99.90;;;;;;4938942;28;20043;-74
2022/10/14 02:03:45;;;;;;;35.70;5.55;;;11.70;99.90;;;;;;4935843;28;20036;-74
2022/10/14 02:06:33;;;;;;;30.33;6.00;;;11.60;99.90;;;;;;4935014;28;20148;-74
2022/10/14 02:09:22;;;;;;;22.30;5.88;;;11.60;99.90;;;;;;4944177;28;20096;-74
2022/10/14 02:12:06;;;;;;;32.80;5.75;;;11.60;99.90;;;;;;4961083;28;20035;-75
2022/10/14 02:14:42;;;;;;;22.08;5.78;;;11.60;99.90;;;;;;4950045;28;20073;-74
2022/10/14 02:17:26;;;;;;;30.50;5.63;;;11.60;99.90;;;;;;4948435;28;20054;-75
2022/10/14 02:19:59;;;;;;;32.25;5.43;;;11.60;99.90;;;;;;4936744;28;20043;-75
2022/10/14 02:22:42;;;;;;;21.60;5.03;;;11.60;99.90;;;;;;4937738;28;20051;-75
2022/10/14 02:25:29;;;;;;;32.90;4.70;;;11.60;99.90;;;;;;4948467;28;20138;-74
2022/10/14 02:27:56;;;;;;;18.65;5.65;;;11.60;99.90;;;;;;4936240;28;20062;-74
2022/10/14 02:30:22;;;;;;;26.35;5.00;;;11.50;99.90;;;;;;4944074;28;20058;-79
2022/10/14 02:32:54;;;;;;;12.20;5.57;;;11.60;99.90;;;;;;5006652;22;20060;-85
2022/10/14 02:35:23;;;;;;;21.58;5.93;;;11.60;99.90;;;;;;5068482;28;20571;-85
2022/10/14 02:37:51;;;;;;;18.17;5.82;;;11.60;99.90;;;;;;5085200;28;20105;-86
2022/10/14 02:40:30;;;;;;;21.30;5.88;;;11.50;99.90;;;;;;5073624;28;20048;-85
2022/10/14 02:42:58;;;;;;;14.38;6.28;;;11.60;99.90;;;;;;5063060;28;20050;-85
2022/10/14 02:45:28;;;;;;;17.05;5.35;;;11.60;99.90;;;;;;5070022;28;20090;-85
2022/10/14 02:47:54;;;;;;;21.23;6.32;;;11.60;99.90;;;;;;5056315;28;20504;-83
2022/10/14 02:50:23;;;;;;;12.85;6.13;;;11.60;99.90;;;;;;5058020;28;20483;-85
2022/10/14 02:52:55;;;;;;;14.57;5.95;;;11.60;99.90;;;;;;5053391;28;20256;-85
2022/10/14 02:55:21;;;;;;;15.85;5.88;;;11.60;99.90;;;;;;5051782;28;20052;-86
2022/10/14 02:57:47;;;;;;;19.50;6.22;;;11.60;99.90;;;;;;5076046;28;20522;-83
2022/10/14 03:00:13;;;;;;;10.15;5.75;;;11.60;99.90;;;;;;5053677;28;20460;-85
2022/10/14 03:02:44;;;;;;;18.05;6.15;;;11.50;99.90;;;;;;5068283;28;20072;-85
2022/10/14 03:05:12;;;;;;;10.57;5.95;;;11.50;99.90;;;;;;5051400;28;20484;-85
2022/10/14 03:07:41;;;;;;;13.35;4.40;;;11.50;99.90;;;;;;5059875;28;20047;-88
2022/10/14 03:10:07;;;;;;;11.32;4.78;;;11.40;99.90;;;;;;5073117;28;20881;-88
2022/10/14 03:12:35;;;;;;;12.77;5.40;;;11.40;99.90;;;;;;5073614;28;20035;-86
2022/10/14 03:15:02;;;;;;;10.25;5.03;;;11.30;99.90;;;;;;5070763;28;20505;-85
2022/10/14 03:17:28;;;;;;;;;;;11.30;99.90;;;;;;5052960;28;20041;-84
2022/10/14 03:19:53;;;;;;;10.88;4.72;;;11.20;99.90;;;;;;5053173;28;20295;-85
2022/10/14 03:22:19;;;;;;;8.07;4.80;;;11.20;99.90;;;;;;5067280;28;20040;-85
2022/10/14 03:24:45;;;;;;;13.03;4.90;;;11.20;99.90;;;;;;5070037;28;20048;-83
2022/10/14 03:27:10;;;;;;;10.57;4.40;;;11.10;99.90;;;;;;5054380;28;20210;-83
2022/10/14 03:29:36;;;;;;;15.23;4.68;;;11.10;99.90;;;;;;5070229;28;20615;-85
2022/10/14 03:32:04;;;;;;;12.37;4.43;;;11.00;99.90;;;;;;5054503;28;20039;-84
2022/10/14 03:34:32;;;;;;;15.60;4.15;;;11.00;99.90;;;;;;5068093;28;20040;-84
2022/10/14 03:36:58;;;;;;;11.60;3.92;;;10.90;99.90;;;;;;5070890;28;20036;-85
2022/10/14 03:39:24;;;;;;;12.40;4.43;;;10.90;99.90;;;;;;5076448;28;20210;-85
2022/10/14 03:41:50;;;;;;;12.53;4.30;;;10.90;99.90;;;;;;5073802;28;20119;-85
2022/10/14 03:44:16;;;;;;;8.05;3.85;;;10.90;99.90;;;;;;5053847;28;20120;-83
2022/10/14 03:46:44;;;;;;;14.93;4.65;;;10.80;99.90;;;;;;5049746;28;20071;-84
2022/10/14 03:49:10;;;;;;;10.20;4.55;;;10.80;99.90;;;;;;5052922;28;20429;-85
2022/10/14 03:51:38;;;;;;;16.83;4.35;;;10.90;99.90;;;;;;5069680;28;20439;-85
2022/10/14 03:54:04;;;;;;;12.03;4.80;;;10.80;99.90;;;;;;5068295;28;20120;-85
2022/10/14 03:56:30;;;;;;;16.90;4.55;;;10.80;99.90;;;;;;5065983;28;20282;-85
2022/10/14 03:58:56;;;;;;;18.10;5.47;;;10.70;99.90;;;;;;5049543;28;20628;-86
2022/10/14 04:01:22;;;;;;;10.85;4.85;;;10.70;99.90;;;;;;5068773;28;20032;-86
2022/10/14 04:03:51;;;;;;;20.42;5.38;;;10.70;99.90;;;;;;5065451;28;20747;-86
2022/10/14 04:06:17;;;;;;;12.27;4.93;;;10.70;99.90;;;;;;5075234;28;20139;-86
2022/10/14 04:08:43;;;;;;;13.05;4.80;;;10.70;99.90;;;;;;5054868;28;20064;-84
2022/10/14 04:11:09;;;;;;;17.13;5.13;;;10.70;99.90;;;;;;5048869;28;20097;-86
2022/10/14 04:13:35;;;;;;;17.17;5.80;;;10.70;99.90;;;;;;5056282;28;20056;-85
2022/10/14 04:16:03;;;;;;;15.88;5.20;;;10.70;99.90;;;;;;5069237;28;20052;-84
2022/10/14 04:18:29;;;;;;;18.38;4.90;;;10.70;99.90;;;;;;5069933;28;20065;-85
2022/10/14 04:20:59;;;;;;;16.35;5.43;;;10.70;99.90;;;;;;5050225;28;20664;-85
2022/10/14 04:23:25;;;;;;;14.80;5.50;;;10.70;99.90;;;;;;5052330;28;20048;-86
2022/10/14 04:25:50;;;;;;;12.70;5.37;;;10.70;99.90;;;;;;5046944;28;20504;-85
2022/10/14 04:28:16;;;;;;;11.63;4.63;;;10.70;99.90;;;;;;5069812;28;20293;-85
2022/10/14 04:30:42;;;;;;;14.82;5.47;;;10.70;99.90;;;;;;5049622;28;20040;-82
2022/10/14 04:33:08;;;;;;;10.50;4.78;;;10.70;99.90;;;;;;5049393;28;20116;-85
2022/10/14 04:35:34;;;;;;;9.13;4.63;;;10.70;99.90;;;;;;5065817;28;20170;-85
2022/10/14 04:38:02;;;;;;;12.27;5.45;;;10.70;99.90;;;;;;5065447;28;20123;-85
2022/10/14 04:40:29;;;;;;;25.00;5.43;;;10.80;99.90;;;;;;5052702;28;20348;-86
2022/10/14 04:42:58;;;;;;;13.52;5.60;;;10.70;99.90;;;;;;5064263;28;20040;-86
2022/10/14 04:45:25;;;;;;;14.35;5.10;;;10.80;99.90;;;;;;5050546;28;20041;-86
2022/10/14 04:47:51;;;;;;;16.67;5.47;;;10.70;99.90;;;;;;5051845;28;20037;-85
2022/10/14 04:50:20;;;;;;;15.82;5.43;;;10.70;99.90;;;;;;5049211;28;20094;-85
2022/10/14 04:52:49;;;;;;;15.60;6.18;;;10.70;99.90;;;;;;5071117;28;20098;-86
2022/10/14 04:55:15;;;;;;;15.23;5.77;;;10.70;99.90;;;;;;5053802;28;20577;-85
2022/10/14 04:57:48;;;;;;;17.38;5.40;;;10.70;99.90;;;;;;5065964;28;20308;-85
2022/10/14 05:00:24;;;;;;;22.70;6.78;;;10.70;99.90;;;;;;5043629;28;20052;-85
2022/10/14 05:02:53;;;;;;;19.27;7.22;;;10.70;99.90;;;;;;5050309;28;20055;-86
2022/10/14 05:05:18;;;;;;;17.83;6.15;;;10.70;99.90;;;;;;5062911;28;20043;-86
2022/10/14 05:07:44;;;;;;;18.85;6.70;;;10.70;99.90;;;;;;5050600;28;20041;-84
2022/10/14 05:10:10;;;;;;;22.40;7.47;;;10.70;99.90;;;;;;5049325;28;20128;-86
2022/10/14 05:12:42;;;;;;;18.97;6.57;;;10.70;99.90;;;;;;5065795;28;20101;-85
2022/10/14 05:15:09;;;;;;;22.60;6.63;;;10.70;99.90;;;;;;5053911;28;20388;-84
2022/10/14 05:17:36;;;;;;;19.80;6.28;;;10.70;99.90;;;;;;5064755;28;20127;-83
2022/10/14 05:20:03;;;;;;;17.33;6.57;;;10.70;99.90;;;;;;5055960;28;20043;-85
2022/10/14 05:22:28;;;;;;;;;;;10.70;99.90;;;;;;5042382;28;20045;-84
2022/10/14 05:24:54;;;;;;;29.50;6.22;;;10.60;99.90;;;;;;5067764;28;19930;-85
2022/10/14 05:27:20;;;;;;;16.20;6.13;;;10.70;99.90;;;;;;5053039;28;20036;-87
2022/10/14 05:29:47;;;;;;;23.95;5.93;;;10.70;99.90;;;;;;5085511;28;20269;-85
2022/10/14 05:32:16;;;;;;;21.38;6.00;;;10.70;99.90;;;;;;5072885;28;20097;-89
2022/10/14 05:34:45;;;;;;;19.02;7.25;;;10.70;99.90;;;;;;5064721;28;20122;-88
2022/10/14 05:37:12;;;;;;;31.77;6.68;;;10.70;99.90;;;;;;5070341;28;20277;-87
2022/10/14 05:39:38;;;;;;;;;;;10.70;99.90;;;;;;5052704;28;20040;-86
2022/10/14 05:42:04;;;;;;;22.58;6.15;;;10.70;99.90;;;;;;5068142;28;19924;-84
2022/10/14 05:44:29;;;;;;;28.27;6.72;;;10.70;99.90;;;;;;5052280;28;20072;-85
2022/10/14 05:46:57;;;;;;;24.92;6.50;;;10.50;99.90;;;;;;5059905;28;20538;-86
2022/10/14 05:49:23;;;;;;;21.05;6.47;;;10.60;99.90;;;;;;5067758;28;20032;-83
2022/10/14 05:51:55;;;;;;;22.05;6.43;;;10.60;99.90;;;;;;5047767;28;20089;-86
2022/10/14 05:54:25;;;;;;;16.92;6.63;;;10.60;99.90;;;;;;5069359;28;20049;-86
2022/10/14 05:56:51;;;;;;;19.70;7.22;;;10.60;99.90;;;;;;5054466;28;20044;-85
2022/10/14 05:59:17;;;;;;;17.77;6.25;;;10.60;99.90;;;;;;5064248;28;20050;-85
2022/10/14 06:01:45;;;;;;;12.68;6.47;;;10.60;99.90;;;;;;5065023;28;20087;-87
2022/10/14 06:04:19;;;;;;;14.65;6.22;;;10.60;99.90;;;;;;5051688;28;20047;-86
2022/10/14 06:06:51;;;;;;;15.70;7.47;;;10.60;99.90;;;;;;5066327;28;20046;-86
2022/10/14 06:09:17;;;;;;;18.75;6.28;;;10.60;99.90;;;;;;5051043;28;20513;-85
2022/10/14 06:11:44;;;;;;;22.30;6.88;;;10.60;99.90;;;;;;5065701;28;20135;-87
2022/10/14 06:14:12;;;;;;;;;;;10.60;99.90;;;;;;5061601;28;20431;-87
2022/10/14 06:16:38;;;;;;;16.23;6.82;;;10.70;99.90;;;;;;5063834;28;19917;-85
2022/10/14 06:19:09;;;;;;;18.20;6.60;;;10.60;99.90;;;;;;5074654;28;20112;-88
2022/10/14 06:21:35;;;;;;;16.15;6.57;;;10.60;99.90;;;;;;5056637;28;20822;-88
2022/10/14 06:24:01;;;;;;;18.57;5.97;;;10.60;99.90;;;;;;5070065;28;20041;-85
2022/10/14 06:26:27;;;;;;;16.15;6.30;;;10.60;99.90;;;;;;5046760;28;20040;-85
2022/10/14 06:28:54;;;;;;;25.67;6.50;;;10.50;99.90;;;;;;5068695;28;20040;-84
2022/10/14 06:31:22;;;;;;;19.42;6.90;;;10.60;99.90;;;;;;5051644;28;20391;-86
2022/10/14 06:33:48;;;;;;;16.05;6.78;;;10.60;99.90;;;;;;5061621;28;20439;-85
2022/10/14 06:36:16;;;;;;;32.90;6.38;;;10.60;99.90;;;;;;5044501;28;20045;-85
2022/10/14 06:38:49;;;;;;;16.10;6.18;;;10.60;99.90;;;;;;5083715;28;20126;-85
2022/10/14 06:41:15;;;;;;;22.48;6.80;;;10.60;99.90;;;;;;5071330;28;20056;-85
2022/10/14 06:43:41;;;;;;;26.05;6.35;;;10.60;99.90;;;;;;5064455;28;20040;-86
2022/10/14 06:46:09;;;;;;;18.87;6.07;;;10.60;99.90;;;;;;5051628;28;20115;-85
2022/10/14 06:48:36;;;;;;;17.80;6.22;;;10.60;99.90;;;;;;5062200;28;20137;-86
2022/10/14 06:51:02;;;;;;;14.85;6.45;;;10.60;99.90;;;;;;5074495;28;20256;-83
2022/10/14 06:53:28;;;;;;;14.02;5.63;;;10.70;99.90;;;;;;5064120;28;20052;-85
2022/10/14 06:56:01;;;;;;;;;;;10.70;99.90;;;;;;5073150;28;20089;-85
2022/10/14 06:58:31;;;;;;;12.07;5.47;;;10.70;99.90;;;;;;5075041;28;19991;-88
2022/10/14 07:01:02;;;;;;;16.30;6.47;;;10.70;99.90;;;;;;5074954;28;20499;-88
2022/10/14 07:03:27;;;;;;;13.00;5.93;;;10.80;99.90;;;;;;5064658;28;20044;-88
2022/10/14 07:05:53;;;;;;;11.45;5.97;;;10.70;99.90;;;;;;5063027;28;20043;-88
2022/10/14 07:08:19;;;;;;;11.85;6.15;;;10.70;99.90;;;;;;5063161;28;20048;-85
2022/10/14 07:10:48;;;;;;;12.30;6.20;;;10.70;99.90;;;;;;5058037;28;20040;-85
2022/10/14 07:13:16;;;;;;;15.02;6.30;;;10.80;99.90;;;;;;5075077;28;20042;-86
2022/10/14 07:15:42;;;;;;;13.32;5.97;;;10.80;99.90;;;;;;5063424;28;20064;-85
2022/10/14 07:18:07;;;;;;;11.97;5.83;;;10.80;99.90;;;;;;5050064;28;20032;-85
2022/10/14 07:20:35;;;;;;;16.80;6.43;;;10.80;99.90;;;;;;5070105;28;20814;-86
2022/10/14 07:23:01;;;;;;;14.48;6.15;;;10.80;99.90;;;;;;5073010;28;20046;-84
2022/10/14 07:25:27;;;;;;;14.30;6.23;;;10.90;99.90;;;;;;5059283;28;20046;-86
2022/10/14 07:27:53;;;;;;;16.87;6.40;;;10.80;99.90;;;;;;5061716;28;20032;-84
2022/10/14 07:30:19;;;;;;;14.00;6.40;;;10.90;99.90;;;;;;5060177;28;20369;-85
2022/10/14 07:32:47;;;;;;;15.80;6.53;;;10.90;99.90;;;;;;5066210;28;20086;-85
2022/10/14 07:35:13;;;;;;;15.10;6.80;;;10.90;99.90;;;;;;5067192;28;20036;-87
2022/10/14 07:37:39;;;;;;;14.27;6.07;;;10.90;99.90;;;;;;5054151;28;20820;-85
2022/10/14 07:40:05;;;;;;;16.10;6.82;;;11.00;99.90;;;;;;5066731;28;20036;-84
2022/10/14 07:42:34;;;;;;;17.52;7.10;;;11.00;99.90;;;;;;5057680;28;20345;-85
2022/10/14 07:45:00;;;;;;;14.82;6.95;;;11.00;99.90;;;;;;5070298;28;20051;-85
2022/10/14 07:47:25;;;;;;;14.93;7.07;;;11.10;99.90;;;;;;5052267;28;20041;-85
2022/10/14 07:49:51;;;;;;;15.90;7.70;;;11.10;99.90;;;;;;5047636;28;20174;-84
2022/10/14 07:52:18;;;;;;;14.38;7.07;;;11.10;99.90;;;;;;5059823;28;20480;-85
2022/10/14 07:54:44;;;;;;;15.25;7.25;;;11.10;99.90;;;;;;5052864;28;20504;-85
2022/10/14 07:57:11;;;;;;;14.65;7.28;;;11.10;99.90;;;;;;5043348;28;20123;-86
2022/10/14 07:59:37;;;;;;;16.80;8.45;;;11.20;99.90;;;;;;5069147;28;20044;-85
2022/10/14 08:02:03;;;;;;;18.58;8.38;;;11.10;99.90;;;;;;5070472;28;20450;-85
2022/10/14 08:04:29;;;;;;;19.13;7.97;;;11.20;99.90;;;;;;5055132;28;20094;-85
2022/10/14 08:06:55;;;;;;;16.67;7.82;;;11.20;99.90;;;;;;5077779;28;20032;-86
2022/10/14 08:09:21;;;;;;;16.42;8.05;;;11.20;99.90;;;;;;5058454;28;20041;-85
2022/10/14 08:11:47;;;;;;;15.85;7.10;;;11.30;99.90;;;;;;5055393;28;20047;-85
2022/10/14 08:14:13;;;;;;;18.55;8.07;;;11.30;99.90;;;;;;5071058;28;20045;-85
2022/10/14 08:16:39;;;;;;;18.83;7.93;;;11.30;99.90;;;;;;5050741;28;20055;-86
2022/10/14 08:19:08;;;;;;;19.33;8.25;;;11.40;99.90;;;;;;5057718;28;20040;-85
2022/10/14 08:21:34;;;;;;;18.27;7.70;;;11.40;99.90;;;;;;5082821;28;20113;-84
2022/10/14 08:24:00;;;;;;;18.83;7.83;;;11.40;99.90;;;;;;5048877;28;20056;-84
2022/10/14 08:26:30;;;;;;;18.67;7.22;;;11.40;99.90;;;;;;5052390;28;20040;-85
2022/10/14 08:28:58;;;;;;;16.17;6.95;;;11.40;99.90;;;;;;5073912;28;20055;-84
2022/10/14 08:31:24;;;;;;;16.65;7.35;;;11.60;99.90;;;;;;5063817;28;20033;-85
2022/10/14 08:36:18;;;;;;;18.33;8.02;;;11.60;99.90;;;;;;5034066;28;20499;-76
2022/10/14 08:38:44;;;;;;;19.20;8.27;;;11.60;99.90;;;;;;5031018;28;20049;-76
2022/10/14 08:41:13;;;;;;;17.90;7.80;;;11.70;99.90;;;;;;5034976;28;20486;-75
2022/10/14 08:44:16;;;;;;;16.25;7.70;;;11.70;99.90;;;;;;5019961;28;20126;-75
2022/10/14 08:46:51;;;;;;;16.98;7.47;;;11.70;99.90;;;;;;5031518;28;20047;-75
2022/10/14 08:49:22;;;;;;;19.27;8.30;;;11.70;99.90;;;;;;5015713;28;20228;-75
2022/10/14 08:52:07;;;;;;;20.55;8.60;;;11.70;99.90;;;;;;5021189;28;21309;-76
2022/10/14 08:54:43;;;;;;;18.30;7.90;;;11.70;99.90;;;;;;5032414;28;20131;-75
2022/10/14 08:57:19;;;;;;;18.65;7.85;;;11.70;99.90;;;;;;5017272;28;20041;-76
2022/10/14 08:59:45;;;;;;;20.37;9.57;;;11.80;99.90;;;;;;5011726;28;20236;-76
2022/10/14 09:02:21;;;;;;;19.90;8.90;;;11.80;99.90;;;;;;5012761;28;20418;-76
2022/10/14 09:04:47;;;;;;;24.23;9.07;;;11.80;99.90;;;;;;5019760;28;20041;-80
2022/10/14 09:07:17;;;;;;;22.67;9.30;;;11.90;99.90;;;;;;5022414;28;20037;-75
2022/10/14 09:09:47;;;;;;;23.65;8.85;;;11.90;99.90;;;;;;5022861;28;20221;-75
2022/10/14 09:12:19;;;;;;;24.00;10.30;;;11.90;99.90;;;;;;5005275;28;20094;-75
2022/10/14 09:15:21;;;;;;;25.55;10.05;;;11.90;99.90;;;;;;5013372;28;20048;-75
2022/10/14 09:18:15;;;;;;;27.60;9.88;;;12.00;99.90;;;;;;5024754;28;20403;-76
2022/10/14 09:20:43;;;;;;;26.20;9.80;;;12.00;99.90;;;;;;5031235;28;20474;-76
2022/10/14 09:23:16;;;;;;;24.45;10.77;;;12.00;99.90;;;;;;5018683;28;20071;-75
2022/10/14 09:25:51;;;;;;;22.63;10.40;;;12.10;99.90;;;;;;5026585;28;20071;-73
2022/10/14 09:28:18;;;;;;;26.17;10.93;;;12.10;99.90;;;;;;5032703;28;20112;-75
2022/10/14 09:30:44;;;;;;;23.10;9.75;;;12.10;99.90;;;;;;5035829;28;20076;-75
2022/10/14 09:33:16;;;;;;;22.55;10.02;;;12.20;99.90;;;;;;5022410;28;20081;-76
2022/10/14 09:35:43;;;;;;;24.38;9.75;;;12.20;99.90;;;;;;5028822;28;20507;-75
2022/10/14 09:38:10;;;;;;;;;;;12.20;99.90;;;;;;5027678;28;20034;-75
2022/10/14 09:40:43;;;;;;;25.45;10.50;;;12.40;99.90;;;;;;5025538;28;19943;-76
2022/10/14 09:43:09;;;;;;;22.63;10.55;;;12.30;99.90;;;;;;5024624;28;20091;-75
2022/10/14 09:45:57;;;;;;;22.47;9.93;;;12.30;99.90;;;;;;5042529;28;20096;-77
2022/10/14 09:48:32;;;;;;;24.60;9.75;;;12.30;99.90;;;;;;5025223;28;20117;-75
2022/10/14 09:51:01;;;;;;;22.77;9.50;;;12.30;99.90;;;;;;5030220;28;20053;-76
2022/10/14 09:53:31;;;;;;;19.10;9.15;;;12.40;99.90;;;;;;5024797;28;20049;-76
2022/10/14 09:56:02;;;;;;;21.05;8.57;;;12.40;99.90;;;;;;5022934;28;20045;-75
2022/10/14 09:58:42;;;;;;;20.58;8.68;;;12.40;99.90;;;;;;5029203;28;20067;-77
2022/10/14 10:01:14;;;;;;;21.25;9.50;;;12.40;99.90;;;;;;5030261;28;20045;-76
2022/10/14 10:03:40;;;;;;;18.90;8.02;;;12.50;99.90;;;;;;5026703;28;20045;-75
2022/10/14 10:06:11;;;;;;;19.05;9.27;;;12.40;99.90;;;;;;5025549;28;20037;-75
2022/10/14 10:08:59;;;;;;;18.80;8.90;;;12.50;99.90;;;;;;5023563;28;20073;-75
2022/10/14 10:11:36;;;;;;;18.92;7.85;;;12.60;99.90;;;;;;5030222;28;20037;-75
2022/10/14 10:14:33;;;;;;;22.35;8.43;;;12.60;99.90;;;;;;5027032;28;20053;-76
2022/10/14 10:17:11;;;;;;;20.23;7.43;;;12.60;99.90;;;;;;5027071;28;20103;-75
2022/10/14 10:19:45;;;;;;;14.15;6.97;;;12.70;99.90;;;;;;5020487;28;20057;-76
2022/10/14 10:22:19;;;;;;;16.10;6.80;;;12.70;99.90;;;;;;5022407;28;20042;-75
2022/10/14 10:25:08;;;;;;;13.70;6.30;;;12.70;99.90;;;;;;5030844;28;20084;-76
2022/10/14 10:27:38;;;;;;;15.35;6.43;;;12.80;99.90;;;;;;5025558;28;20388;-75
2022/10/14 10:30:42;;;;;;;15.10;6.75;;;12.80;99.90;;;;;;5024630;28;20033;-75
2022/10/14 10:33:26;;;;;;;12.93;6.32;;;12.90;99.90;;;;;;5019424;28;20638;-75
2022/10/14 10:36:16;;;;;;;15.18;7.45;;;12.90;99.90;;;;;;5025541;28;20045;-74
2022/10/14 10:39:23;;;;;;;14.13;6.30;;;12.80;99.90;;;;;;5024042;28;20049;-75
2022/10/14 10:42:04;;;;;;;11.20;6.28;;;12.90;99.90;;;;;;5004605;28;20041;-75
2022/10/14 10:45:18;;;;;;;14.38;6.25;;;12.90;99.90;;;;;;5030816;28;20042;-74
2022/10/14 10:47:55;;;;;;;10.15;5.07;;;13.00;99.90;;;;;;4974343;28;20437;-75
2022/10/14 10:50:21;;;;;;;11.30;5.18;;;13.00;99.90;;;;;;4972670;28;20125;-75
2022/10/14 10:52:49;;;;;;;11.83;4.50;;;13.00;99.90;;;;;;5016454;28;20128;-76
2022/10/14 10:55:34;;;;;;;9.70;4.47;;;13.00;99.90;;;;;;5027356;28;20132;-75
2022/10/14 10:58:28;;;;;;;9.93;4.90;;;13.00;99.90;;;;;;5027854;28;20077;-75
2022/10/14 11:01:08;;;;;;;10.88;4.05;;;13.10;99.90;;;;;;5009450;28;20116;-75
2022/10/14 11:04:11;;;;;;;7.70;3.97;;;13.10;99.90;;;;;;5032789;28;20049;-75
2022/10/14 11:13:22;;;;;;;8.80;3.85;;;13.20;99.90;;;;;;5029683;28;20127;-75
2022/10/14 11:16:03;;;;;;;8.60;3.85;;;13.30;99.90;;;;;;5032001;28;20087;-75
2022/10/14 11:18:37;;;;;;;7.63;3.67;;;13.30;99.90;;;;;;5025943;28;20407;-75
2022/10/14 11:21:18;;;;;;;7.85;3.67;;;13.30;99.90;;;;;;5035716;28;20139;-80
2022/10/14 11:23:58;;;;;;;7.78;3.70;;;13.30;99.90;;;;;;5029850;28;20111;-77
2022/10/14 11:26:35;;;;;;;7.80;3.65;;;13.40;99.90;;;;;;5025005;28;20179;-73
2022/10/14 11:29:15;;;;;;;7.63;3.42;;;13.30;99.90;;;;;;5027726;28;20037;-73
2022/10/14 11:32:04;;;;;;;7.57;3.70;;;13.30;99.90;;;;;;5038496;28;20044;-73
2022/10/14 11:34:42;;;;;;;8.93;3.38;;;13.30;99.90;;;;;;5039007;28;20045;-73
2022/10/14 11:37:53;;;;;;;7.93;3.58;;;13.40;99.90;;;;;;5042068;28;20045;-74
2022/10/14 11:40:25;;;;;;;7.22;3.17;;;13.40;99.90;;;;;;4979725;28;20121;-73
2022/10/14 11:43:09;;;;;;;7.03;3.38;;;13.40;99.90;;;;;;5023520;28;20081;-73
2022/10/14 11:45:39;;;;;;;6.60;3.20;;;13.40;99.90;;;;;;5034701;28;20062;-73
2022/10/14 11:48:43;;;;;;;6.95;3.30;;;13.40;99.90;;;;;;5026979;28;20044;-73
2022/10/14 11:51:32;;;;;;;9.30;3.28;;;13.40;99.90;;;;;;5034800;28;20075;-73
2022/10/14 11:54:03;;;;;;;7.97;2.92;;;13.40;99.90;;;;;;5027519;28;20488;-74
2022/10/14 11:56:44;;;;;;;7.18;3.35;;;13.40;99.90;;;;;;5028086;28;20183;-73
2022/10/14 11:59:43;;;;;;;5.57;2.70;;;13.40;99.90;;;;;;5030746;28;20047;-73
2022/10/14 12:02:26;;;;;;;6.15;3.20;;;13.40;99.90;;;;;;5021657;28;20069;-73
2022/10/14 12:05:00;;;;;;;7.43;3.13;;;13.40;99.90;;;;;;5035238;28;20438;-73
2022/10/14 12:07:35;;;;;;;6.35;3.10;;;13.40;99.90;;;;;;5026509;28;20458;-73
2022/10/14 12:10:07;;;;;;;6.18;2.83;;;13.40;99.90;;;;;;5039800;28;20148;-73
2022/10/14 12:12:35;;;;;;;7.05;3.38;;;13.40;99.90;;;;;;5028337;28;20045;-73
2022/10/14 12:15:06;;;;;;;6.88;2.88;;;13.40;99.90;;;;;;5038763;28;20425;-73
2022/10/14 12:17:49;;;;;;;6.28;3.45;;;13.40;99.90;;;;;;5035442;28;20045;-73
2022/10/14 12:20:25;;;;;;;5.82;3.03;;;13.40;99.90;;;;;;5027533;28;20041;-73
2022/10/14 12:22:53;;;;;;;4.78;2.50;;;13.40;99.90;;;;;;5030010;28;20077;-73
2022/10/14 12:25:21;;;;;;;5.38;2.53;;;13.40;99.90;;;;;;5032780;28;20408;-72
2022/10/14 12:27:49;;;;;;;7.07;3.05;;;13.40;99.90;;;;;;5027121;28;20045;-73
2022/10/14 12:30:32;;;;;;;5.90;2.97;;;13.50;99.90;;;;;;5024259;28;20124;-73
2022/10/14 12:33:01;;;;;;;6.80;2.88;;;13.40;99.90;;;;;;5029820;28;20083;-73
2022/10/14 12:36:00;;;;;;;7.28;2.78;;;13.50;99.90;;;;;;5037715;28;20045;-74
2022/10/14 12:38:30;;;;;;;5.45;2.67;;;13.50;99.90;;;;;;5038305;28;20040;-73
2022/10/14 12:41:38;;;;;;;7.03;2.70;;;13.60;99.90;;;;;;5020436;28;20149;-74
2022/10/14 12:44:11;;;;;;;;;;;13.50;99.90;;;;;;4994000;28;20053;-73
2022/10/14 12:46:44;;;;;;;4.45;2.15;;;13.60;99.90;;;;;;5037305;28;19921;-73
2022/10/14 12:49:31;;;;;;;5.30;2.45;;;13.50;99.90;;;;;;5037330;28;20037;-74
2022/10/14 12:52:06;;;;;;;5.55;2.95;;;13.60;99.90;;;;;;5034175;28;20052;-74
2022/10/14 12:54:34;;;;;;;5.50;2.45;;;13.60;99.90;;;;;;5028233;28;20371;-73
2022/10/14 12:57:01;;;;;;;4.95;2.20;;;13.60;99.90;;;;;;5031739;28;20049;-74
2022/10/14 12:59:35;;;;;;;5.68;2.35;;;13.60;99.90;;;;;;5024840;28;20049;-73
2022/10/14 13:02:31;;;;;;;4.32;2.10;;;13.60;99.90;;;;;;5025932;28;20490;-73
2022/10/14 13:05:00;;;;;;;5.75;2.47;;;13.60;99.90;;;;;;5014709;28;20363;-73
2022/10/14 13:07:28;;;;;;;5.30;2.50;;;13.70;99.90;;;;;;5028713;28;20064;-73
2022/10/14 13:09:59;;;;;;;3.40;2.10;;;13.60;99.90;;;;;;5026181;28;20048;-73
2022/10/14 13:12:24;;;;;;;4.10;2.05;;;13.60;99.90;;;;;;5031749;28;20044;-73
2022/10/14 13:15:01;;;;;;;4.33;2.00;;;13.70;99.90;;;;;;5031133;28;20522;-73
2022/10/14 13:17:41;;;;;;;4.47;2.30;;;13.70;99.90;;;;;;5023113;28;20301;-74
2022/10/14 13:20:32;;;;;;;4.47;2.03;;;13.70;99.90;;;;;;5025994;28;20211;-74
2022/10/14 13:23:16;;;;;;;3.97;1.98;;;13.70;99.90;;;;;;4997838;28;20098;-73
2022/10/14 13:25:43;;;;;;;4.78;2.05;;;13.70;99.90;;;;;;5035747;28;20041;-73
2022/10/14 13:28:25;;;;;;;4.57;2.20;;;13.70;99.90;;;;;;5030944;28;20085;-73